Time;durP1;ratioP1;P1;durP2;ratioP2;P2;SDS_P1;SDS_P2;PMS_P1;PMS_P2;Temp;Humidity;BMP_temperature;BMP_pressure;BME280_temperature;BME280_humidity;BME280_pressure;Samples;Min_cycle;Max_cycle;Signal;HPM_P1;HPM_P2
2021/03/23 00:00:24;;;;;;;6.60;3.17;;;5.30;99.90;;;;;;5037022;28;19917;-77
2021/03/23 00:03:02;;;;;;;8.40;3.60;;;5.30;99.90;;;;;;5038188;28;20040;-74
2021/03/23 00:05:28;;;;;;;4.47;3.05;;;5.30;99.90;;;;;;5053637;28;20036;-76
2021/03/23 00:07:55;;;;;;;3.72;2.55;;;5.30;99.90;;;;;;5044086;28;20448;-75
2021/03/23 00:10:24;;;;;;;7.60;3.47;;;5.30;99.90;;;;;;5033308;28;20125;-77
2021/03/23 00:12:50;;;;;;;8.23;3.25;;;5.30;99.90;;;;;;5049690;28;20041;-79
2021/03/23 00:15:17;;;;;;;7.13;3.45;;;5.30;99.90;;;;;;5028791;28;20059;-77
2021/03/23 00:17:43;;;;;;;6.97;3.30;;;5.30;99.90;;;;;;5028961;28;20049;-78
2021/03/23 00:20:11;;;;;;;6.53;3.75;;;5.30;99.90;;;;;;5045395;28;20068;-80
2021/03/23 00:22:38;;;;;;;8.63;3.67;;;5.30;99.90;;;;;;5045359;28;20033;-77
2021/03/23 00:25:07;;;;;;;5.72;3.60;;;5.60;99.90;;;;;;5031852;28;20051;-76
2021/03/23 00:27:39;;;;;;;6.13;3.55;;;5.40;99.90;;;;;;5048803;28;20478;-74
2021/03/23 00:30:11;;;;;;;6.47;3.28;;;5.40;99.90;;;;;;5051823;28;20213;-80
2021/03/23 00:32:38;;;;;;;5.97;3.47;;;5.30;99.90;;;;;;5039928;28;20049;-76
2021/03/23 00:35:07;;;;;;;6.72;3.55;;;5.30;99.90;;;;;;5047335;28;20044;-76
2021/03/23 00:37:33;;;;;;;7.45;4.15;;;5.30;99.90;;;;;;5041537;28;20041;-79
2021/03/23 00:40:00;;;;;;;7.63;3.78;;;5.40;99.90;;;;;;5044587;28;20041;-75
2021/03/23 00:42:27;;;;;;;6.68;3.75;;;5.30;99.90;;;;;;5050770;28;20094;-76
2021/03/23 00:44:53;;;;;;;6.55;3.97;;;5.30;99.90;;;;;;5036548;28;20037;-78
2021/03/23 00:47:20;;;;;;;9.45;3.65;;;5.40;99.90;;;;;;5044064;28;20029;-74
2021/03/23 00:49:45;;;;;;;7.53;4.28;;;5.40;99.90;;;;;;5044625;28;20049;-78
2021/03/23 00:52:11;;;;;;;7.75;3.72;;;5.30;99.90;;;;;;5032784;28;20151;-76
2021/03/23 00:54:37;;;;;;;7.43;3.40;;;5.50;99.90;;;;;;5047348;28;20087;-78
2021/03/23 00:57:03;;;;;;;4.88;3.22;;;5.40;99.90;;;;;;5029025;28;20413;-75
2021/03/23 00:59:29;;;;;;;9.25;4.55;;;5.40;99.90;;;;;;5036714;28;20135;-76
2021/03/23 01:01:55;;;;;;;6.72;3.97;;;5.40;99.90;;;;;;5033263;28;20120;-78
2021/03/23 01:04:21;;;;;;;6.53;4.22;;;5.30;99.90;;;;;;5016622;28;20120;-77
2021/03/23 01:06:47;;;;;;;8.00;4.00;;;5.30;99.90;;;;;;5045415;28;20492;-78
2021/03/23 01:09:13;;;;;;;5.45;3.70;;;5.30;99.90;;;;;;5042348;28;20091;-78
2021/03/23 01:11:39;;;;;;;8.57;4.22;;;5.30;99.90;;;;;;5045273;28;20108;-78
2021/03/23 01:14:05;;;;;;;9.32;4.05;;;5.30;99.90;;;;;;5029514;28;20037;-76
2021/03/23 01:16:32;;;;;;;6.30;3.95;;;5.30;99.90;;;;;;5041899;28;20079;-77
2021/03/23 01:18:58;;;;;;;8.75;4.55;;;5.30;99.90;;;;;;5016335;28;20033;-78
2021/03/23 01:21:24;;;;;;;8.32;3.45;;;5.30;99.90;;;;;;5042635;28;20048;-74
2021/03/23 01:23:49;;;;;;;5.68;3.67;;;5.30;99.90;;;;;;5047316;28;20038;-75
2021/03/23 01:26:15;;;;;;;7.80;3.58;;;5.30;99.90;;;;;;5024747;28;20398;-79
2021/03/23 01:28:41;;;;;;;4.95;3.50;;;5.30;99.90;;;;;;5050219;28;20033;-78
2021/03/23 01:31:07;;;;;;;8.27;3.95;;;5.30;99.90;;;;;;5050653;28;20069;-77
2021/03/23 01:33:33;;;;;;;5.25;3.55;;;5.30;99.90;;;;;;5023244;28;20094;-79
2021/03/23 01:35:58;;;;;;;5.50;3.67;;;5.30;99.90;;;;;;5032554;28;20120;-80
2021/03/23 01:38:24;;;;;;;9.27;3.58;;;5.30;99.90;;;;;;5047965;28;20037;-75
2021/03/23 01:40:50;;;;;;;6.50;4.13;;;5.30;99.90;;;;;;5049284;28;20044;-80
2021/03/23 01:43:25;;;;;;;6.82;3.70;;;5.30;99.90;;;;;;5059015;28;20363;-78
2021/03/23 01:45:54;;;;;;;6.25;3.63;;;5.30;99.90;;;;;;5037125;28;20048;-78
2021/03/23 01:48:23;;;;;;;6.50;3.78;;;5.20;99.90;;;;;;5051091;28;20060;-79
2021/03/23 01:50:53;;;;;;;5.38;4.20;;;5.20;99.90;;;;;;5049697;28;20404;-75
2021/03/23 01:53:49;;;;;;;8.23;4.68;;;5.10;99.90;;;;;;5045780;28;20092;-76
2021/03/23 01:56:16;;;;;;;6.55;4.05;;;5.00;99.90;;;;;;5021135;28;20036;-81
2021/03/23 01:58:45;;;;;;;9.13;4.32;;;5.00;99.90;;;;;;5049864;28;20037;-77
2021/03/23 02:01:14;;;;;;;6.53;4.28;;;5.00;99.90;;;;;;5049719;28;20033;-76
2021/03/23 02:03:41;;;;;;;10.07;5.32;;;4.90;99.90;;;;;;5029820;28;20069;-77
2021/03/23 02:06:28;;;;;;;10.13;5.63;;;4.80;99.90;;;;;;5042262;28;20121;-76
2021/03/23 02:08:54;;;;;;;;;;;4.70;99.90;;;;;;5028389;28;20044;-77
2021/03/23 02:11:21;;;;;;;11.32;5.88;;;4.70;99.90;;;;;;5030873;28;19943;-75
2021/03/23 02:13:47;;;;;;;;;;;4.60;99.90;;;;;;5015581;28;20071;-74
2021/03/23 02:16:13;;;;;;;10.55;6.53;;;4.60;99.90;;;;;;5024734;28;20362;-74
2021/03/23 02:18:38;;;;;;;10.68;6.35;;;4.50;99.90;;;;;;5033323;28;20071;-78
2021/03/23 02:21:14;;;;;;;14.52;7.30;;;4.50;99.90;;;;;;5044865;28;20437;-77
2021/03/23 02:23:43;;;;;;;12.20;6.95;;;4.50;99.90;;;;;;5036659;28;20037;-76
2021/03/23 02:26:15;;;;;;;10.70;7.25;;;4.40;99.90;;;;;;5041396;28;20094;-77
2021/03/23 02:28:58;;;;;;;11.88;7.38;;;4.40;99.90;;;;;;5050116;28;20039;-75
2021/03/23 02:31:51;;;;;;;12.45;7.18;;;4.30;99.90;;;;;;5027364;28;20072;-76
2021/03/23 02:34:20;;;;;;;13.82;7.63;;;4.30;99.90;;;;;;5041137;28;20421;-76
2021/03/23 02:36:47;;;;;;;11.23;6.95;;;4.20;99.90;;;;;;5037154;28;20044;-78
2021/03/23 02:39:21;;;;;;;16.08;7.50;;;4.20;99.90;;;;;;5049336;28;20047;-80
2021/03/23 02:41:47;;;;;;;14.35;7.40;;;4.10;99.90;;;;;;5050943;28;20043;-75
2021/03/23 02:44:14;;;;;;;14.32;7.13;;;4.10;99.90;;;;;;5022593;28;20045;-78
2021/03/23 02:46:40;;;;;;;10.50;7.20;;;4.20;99.90;;;;;;5042213;28;20139;-73
2021/03/23 02:49:06;;;;;;;;;;;4.30;99.90;;;;;;5031707;28;20041;-76
2021/03/23 02:51:33;;;;;;;13.43;7.18;;;4.30;99.90;;;;;;5049817;28;19916;-77
2021/03/23 02:53:59;;;;;;;11.25;7.18;;;4.30;99.90;;;;;;5039524;28;20502;-79
2021/03/23 02:56:25;;;;;;;;;;;4.50;99.90;;;;;;5022393;28;20398;-77
2021/03/23 02:58:50;;;;;;;10.50;6.22;;;4.40;99.90;;;;;;5042873;28;19923;-78
2021/03/23 03:01:17;;;;;;;14.27;6.65;;;4.50;99.90;;;;;;5042935;28;20038;-79
2021/03/23 03:03:43;;;;;;;10.52;6.88;;;4.60;99.90;;;;;;5041033;28;20037;-77
2021/03/23 03:06:09;;;;;;;;;;;4.60;99.90;;;;;;5032871;28;20107;-73
2021/03/23 03:08:35;;;;;;;14.80;7.13;;;4.60;99.90;;;;;;5029862;28;19917;-78
2021/03/23 03:11:02;;;;;;;;;;;4.80;99.90;;;;;;5036123;28;20029;-79
2021/03/23 03:13:28;;;;;;;10.75;6.32;;;4.60;99.90;;;;;;5032469;28;20389;-77
2021/03/23 03:15:56;;;;;;;11.90;7.25;;;4.70;99.90;;;;;;5048706;28;20371;-76
2021/03/23 03:18:23;;;;;;;11.68;6.38;;;4.70;99.90;;;;;;5044858;28;20466;-76
2021/03/23 03:20:50;;;;;;;12.55;6.78;;;4.70;99.90;;;;;;5049745;28;20084;-73
2021/03/23 03:23:17;;;;;;;16.13;7.63;;;4.80;99.90;;;;;;5049594;28;20056;-77
2021/03/23 03:25:45;;;;;;;12.80;7.15;;;4.80;99.90;;;;;;5017996;28;20033;-74
2021/03/23 03:28:10;;;;;;;11.05;7.45;;;4.80;99.90;;;;;;5012541;28;20041;-79
2021/03/23 03:30:39;;;;;;;12.48;7.72;;;4.90;99.90;;;;;;4998021;28;20147;-75
2021/03/23 03:33:06;;;;;;;12.70;7.82;;;5.00;99.90;;;;;;5046545;28;20037;-78
2021/03/23 03:35:34;;;;;;;13.80;7.20;;;4.90;99.90;;;;;;5049157;28;20051;-76
2021/03/23 03:38:00;;;;;;;12.02;7.45;;;4.90;99.90;;;;;;5042614;28;20069;-81
2021/03/23 03:40:39;;;;;;;16.38;7.22;;;4.80;99.90;;;;;;5048783;28;20450;-80
2021/03/23 03:43:07;;;;;;;14.77;7.10;;;4.90;99.90;;;;;;5059714;28;20043;-74
2021/03/23 03:45:33;;;;;;;18.52;8.27;;;4.90;99.90;;;;;;5046431;28;20045;-77
2021/03/23 03:48:00;;;;;;;15.00;9.60;;;4.90;99.90;;;;;;5047746;28;20045;-77
2021/03/23 03:50:28;;;;;;;16.00;8.80;;;4.80;99.90;;;;;;5034327;28;20124;-78
2021/03/23 03:52:56;;;;;;;13.40;8.48;;;4.90;99.90;;;;;;5032548;28;20037;-76
2021/03/23 03:55:31;;;;;;;16.70;8.98;;;5.00;99.90;;;;;;5052872;28;20861;-76
2021/03/23 03:58:00;;;;;;;16.00;9.68;;;5.00;99.90;;;;;;5051676;28;20152;-77
2021/03/23 04:00:29;;;;;;;15.30;9.35;;;5.00;99.90;;;;;;5051927;28;20132;-74
2021/03/23 04:02:55;;;;;;;15.85;9.25;;;5.00;99.90;;;;;;5049066;28;20478;-80
2021/03/23 04:05:26;;;;;;;14.80;10.18;;;5.00;99.90;;;;;;5041972;28;20040;-78
2021/03/23 04:07:52;;;;;;;17.73;9.88;;;5.10;99.90;;;;;;5052228;28;20048;-75
2021/03/23 04:10:19;;;;;;;17.75;10.05;;;5.10;99.90;;;;;;5052729;28;20037;-79
2021/03/23 04:12:46;;;;;;;14.13;9.75;;;5.10;99.90;;;;;;5044275;28;20234;-75
2021/03/23 04:15:20;;;;;;;16.67;9.77;;;5.00;99.90;;;;;;5051987;28;20437;-74
2021/03/23 04:17:46;;;;;;;12.85;9.52;;;5.00;99.90;;;;;;5041254;28;20041;-76
2021/03/23 04:20:13;;;;;;;14.45;9.35;;;5.00;99.90;;;;;;5052666;28;20041;-75
2021/03/23 04:22:39;;;;;;;18.83;10.38;;;5.00;99.90;;;;;;5020015;28;20032;-76
2021/03/23 04:25:07;;;;;;;17.35;10.98;;;5.00;99.90;;;;;;5047182;28;20505;-73
2021/03/23 04:27:32;;;;;;;18.38;10.90;;;5.00;99.90;;;;;;5044371;28;20037;-76
2021/03/23 04:29:58;;;;;;;18.00;10.88;;;5.00;99.90;;;;;;5048365;28;20087;-79
2021/03/23 04:32:24;;;;;;;16.23;10.57;;;5.00;99.90;;;;;;5049341;28;20661;-72
2021/03/23 04:34:50;;;;;;;20.50;11.18;;;5.00;99.90;;;;;;5042146;28;20113;-75
2021/03/23 04:37:16;;;;;;;23.35;13.07;;;5.00;99.90;;;;;;5050831;28;20128;-77
2021/03/23 04:39:41;;;;;;;20.80;12.35;;;5.00;99.90;;;;;;5046737;28;20458;-74
2021/03/23 04:42:10;;;;;;;17.73;11.52;;;5.20;99.90;;;;;;5025776;28;20057;-77
2021/03/23 04:44:36;;;;;;;21.08;11.40;;;5.00;99.90;;;;;;5046946;28;20493;-75
2021/03/23 04:47:02;;;;;;;18.67;11.48;;;5.30;99.90;;;;;;5033459;28;20037;-76
2021/03/23 04:49:28;;;;;;;17.63;11.88;;;5.10;99.90;;;;;;5050369;28;20040;-76
2021/03/23 04:51:54;;;;;;;23.13;11.20;;;5.10;99.90;;;;;;5040676;28;20031;-78
2021/03/23 04:54:20;;;;;;;19.73;11.90;;;5.10;99.90;;;;;;5051580;28;20080;-75
2021/03/23 04:56:45;;;;;;;20.92;12.20;;;5.10;99.90;;;;;;5047427;28;20037;-76
2021/03/23 04:59:11;;;;;;;19.00;12.38;;;5.10;99.90;;;;;;5039520;28;20370;-76
2021/03/23 05:01:39;;;;;;;19.58;12.65;;;5.10;99.90;;;;;;5037163;28;20044;-76
2021/03/23 05:04:11;;;;;;;21.45;12.73;;;5.10;99.90;;;;;;5038230;28;20155;-75
2021/03/23 05:06:37;;;;;;;17.33;11.80;;;5.10;99.90;;;;;;5049237;28;20098;-78
2021/03/23 05:09:04;;;;;;;24.60;13.10;;;5.30;99.90;;;;;;5033896;28;20475;-74
2021/03/23 05:11:32;;;;;;;23.90;12.95;;;5.10;99.90;;;;;;5040496;28;20052;-78
2021/03/23 05:13:58;;;;;;;19.58;12.30;;;5.10;99.90;;;;;;5051523;28;20048;-77
2021/03/23 05:16:24;;;;;;;18.08;10.95;;;5.00;99.90;;;;;;5035884;28;20092;-77
2021/03/23 05:18:50;;;;;;;21.30;11.93;;;5.00;99.90;;;;;;5029960;28;20445;-79
2021/03/23 05:21:18;;;;;;;19.55;11.50;;;4.90;99.90;;;;;;5030112;28;20073;-76
2021/03/23 05:23:43;;;;;;;19.05;12.18;;;4.90;99.90;;;;;;5046384;28;20042;-76
2021/03/23 05:26:09;;;;;;;19.00;12.95;;;5.00;99.90;;;;;;5029316;28;20059;-78
2021/03/23 05:28:35;;;;;;;21.75;15.18;;;4.80;99.90;;;;;;5045348;28;20060;-77
2021/03/23 05:31:01;;;;;;;;;;;4.80;99.90;;;;;;5049004;28;20038;-76
2021/03/23 05:33:28;;;;;;;35.72;19.70;;;4.80;99.90;;;;;;5049881;28;19920;-76
2021/03/23 05:35:57;;;;;;;33.38;20.52;;;4.80;99.90;;;;;;5046855;28;20075;-75
2021/03/23 05:38:24;;;;;;;44.33;22.67;;;4.80;99.90;;;;;;5049044;28;20040;-78
2021/03/23 05:41:02;;;;;;;42.88;23.55;;;4.80;99.90;;;;;;5048764;28;20170;-80
2021/03/23 05:43:30;;;;;;;49.60;24.67;;;4.70;99.90;;;;;;5052553;28;20125;-74
2021/03/23 05:46:04;;;;;;;56.25;32.45;;;4.70;99.90;;;;;;5043466;28;20036;-75
2021/03/23 05:48:33;;;;;;;60.92;32.72;;;4.70;99.90;;;;;;5048245;28;20041;-76
2021/03/23 05:51:18;;;;;;;62.35;32.10;;;4.60;99.90;;;;;;5031342;28;20040;-78
2021/03/23 05:54:04;;;;;;;67.88;32.08;;;4.60;99.90;;;;;;5035024;28;20043;-74
2021/03/23 05:56:37;;;;;;;70.40;35.40;;;4.60;99.90;;;;;;5048988;28;20097;-76
2021/03/23 05:59:13;;;;;;;78.70;33.95;;;4.60;99.90;;;;;;5050376;28;20041;-76
2021/03/23 06:01:50;;;;;;;;;;;4.50;99.90;;;;;;5040973;28;20036;-75
2021/03/23 06:04:27;;;;;;;70.38;35.17;;;4.50;99.90;;;;;;5036374;28;19917;-76
2021/03/23 06:07:05;;;;;;;72.05;34.10;;;4.50;99.90;;;;;;4999793;28;20045;-76
2021/03/23 06:09:33;;;;;;;79.95;36.33;;;4.50;99.90;;;;;;5047022;28;20045;-78
2021/03/23 06:12:05;;;;;;;83.22;40.42;;;4.50;99.90;;;;;;5029170;28;20136;-76
2021/03/23 06:14:41;;;;;;;88.07;39.47;;;4.50;99.90;;;;;;5033104;28;20116;-75
2021/03/23 06:17:24;;;;;;;89.47;39.38;;;4.50;99.90;;;;;;5030501;28;20041;-77
2021/03/23 06:20:27;;;;;;;86.90;39.33;;;4.50;99.90;;;;;;5028206;28;20045;-78
2021/03/23 06:23:34;;;;;;;88.18;42.00;;;4.50;99.90;;;;;;5027565;28;20029;-80
2021/03/23 06:26:18;;;;;;;79.40;37.13;;;4.50;99.90;;;;;;5015387;28;20037;-75
2021/03/23 06:29:06;;;;;;;91.32;39.08;;;4.50;99.90;;;;;;5024597;28;20041;-74
2021/03/23 06:32:07;;;;;;;96.85;46.53;;;4.90;99.90;;;;;;5019381;28;20041;-78
2021/03/23 06:34:35;;;;;;;97.35;41.20;;;4.60;99.90;;;;;;5000056;28;20129;-77
2021/03/23 06:37:20;;;;;;;92.13;43.22;;;4.80;99.90;;;;;;5016498;28;20041;-80
2021/03/23 06:39:46;;;;;;;91.70;40.30;;;4.60;99.90;;;;;;5026241;28;20045;-78
2021/03/23 06:42:12;;;;;;;;;;;5.90;99.90;;;;;;5020669;28;20034;-79
2021/03/23 06:44:41;;;;;;;92.18;39.97;;;5.60;99.90;;;;;;5035429;28;19924;-74
2021/03/23 06:47:36;;;;;;;91.82;36.67;;;4.60;99.90;;;;;;5042465;28;20513;-77
2021/03/23 06:50:36;;;;;;;100.40;45.28;;;4.70;99.90;;;;;;5017883;28;20053;-75
2021/03/23 06:53:22;;;;;;;91.25;37.75;;;5.70;99.90;;;;;;4986505;28;20483;-73
2021/03/23 06:55:49;;;;;;;93.88;37.83;;;4.80;99.90;;;;;;5020245;28;20033;-76
2021/03/23 06:58:30;;;;;;;94.57;37.60;;;4.80;99.90;;;;;;5027543;28;20038;-75
2021/03/23 07:01:18;;;;;;;90.20;37.25;;;4.80;99.90;;;;;;5025036;28;20072;-77
2021/03/23 07:03:48;;;;;;;88.43;36.03;;;4.90;99.90;;;;;;5031992;28;20034;-78
2021/03/23 07:06:27;;;;;;;88.53;35.97;;;4.90;99.90;;;;;;5021999;28;20635;-74
2021/03/23 07:09:11;;;;;;;83.75;36.38;;;4.90;99.90;;;;;;5035648;28;20503;-76
2021/03/23 07:12:05;;;;;;;79.43;36.35;;;5.00;99.90;;;;;;5034156;28;20049;-76
2021/03/23 07:14:38;;;;;;;87.25;36.67;;;5.10;99.90;;;;;;5043226;28;20470;-76
2021/03/23 07:17:17;;;;;;;87.28;38.58;;;5.10;99.90;;;;;;5046857;28;20047;-75
2021/03/23 07:19:56;;;;;;;87.10;37.03;;;5.20;99.90;;;;;;5028148;28;20057;-75
2021/03/23 07:22:34;;;;;;;70.78;33.35;;;5.20;99.90;;;;;;5013397;28;20067;-77
2021/03/23 07:25:01;;;;;;;80.28;36.97;;;5.20;99.90;;;;;;5017847;28;20065;-76
2021/03/23 07:27:29;;;;;;;78.35;35.70;;;6.20;99.90;;;;;;5048887;28;20037;-74
2021/03/23 07:30:24;;;;;;;77.55;35.80;;;5.30;99.90;;;;;;5041927;28;20045;-78
2021/03/23 07:32:53;;;;;;;75.78;34.33;;;5.40;99.90;;;;;;5046775;28;20043;-74
2021/03/23 07:35:24;;;;;;;77.53;37.13;;;5.90;99.90;;;;;;5044245;28;20148;-75
2021/03/23 07:38:05;;;;;;;79.10;36.28;;;5.50;99.90;;;;;;5049405;28;20039;-76
2021/03/23 07:40:45;;;;;;;71.13;36.80;;;6.30;99.90;;;;;;5041405;28;20114;-78
2021/03/23 07:43:39;;;;;;;75.90;33.83;;;5.50;99.90;;;;;;5035810;28;20128;-73
2021/03/23 07:46:18;;;;;;;85.25;37.30;;;5.60;99.90;;;;;;5048080;28;20041;-73
2021/03/23 07:48:49;;;;;;;71.43;35.60;;;5.70;99.90;;;;;;5043624;28;20068;-77
2021/03/23 07:51:38;;;;;;;73.88;36.58;;;6.10;99.90;;;;;;5046650;28;20041;-77
2021/03/23 07:54:14;;;;;;;69.90;34.97;;;5.70;99.90;;;;;;5035269;28;20042;-78
2021/03/23 07:56:55;;;;;;;69.20;34.33;;;5.70;99.90;;;;;;5018068;28;20069;-73
2021/03/23 07:59:27;;;;;;;71.50;36.95;;;5.80;99.90;;;;;;5041764;28;20490;-78
2021/03/23 08:02:26;;;;;;;66.18;34.13;;;5.80;99.90;;;;;;5040225;28;20127;-73
2021/03/23 08:05:26;;;;;;;65.70;31.05;;;5.90;99.90;;;;;;5030290;28;20106;-78
2021/03/23 08:08:04;;;;;;;63.47;33.25;;;5.90;99.90;;;;;;5045787;28;20033;-78
2021/03/23 08:10:34;;;;;;;64.40;31.88;;;5.90;99.90;;;;;;5044876;28;20540;-76
2021/03/23 08:13:03;;;;;;;59.20;30.27;;;6.00;99.90;;;;;;5048561;28;20064;-79
2021/03/23 08:15:41;;;;;;;54.03;29.50;;;6.10;99.90;;;;;;5046085;28;20045;-76
2021/03/23 08:18:18;;;;;;;56.00;29.17;;;6.10;99.90;;;;;;5050721;28;20041;-77
2021/03/23 08:21:22;;;;;;;59.80;29.85;;;6.20;99.90;;;;;;5050668;28;20033;-73
2021/03/23 08:24:19;;;;;;;49.65;27.75;;;6.30;99.90;;;;;;4983587;28;20094;-74
2021/03/23 08:27:09;;;;;;;50.30;26.15;;;6.30;99.90;;;;;;5042713;28;20478;-76
2021/03/23 08:30:11;;;;;;;45.80;25.13;;;6.30;99.90;;;;;;5042891;28;20423;-74
2021/03/23 08:32:48;;;;;;;43.97;25.52;;;6.40;99.90;;;;;;5020969;28;20045;-74
2021/03/23 08:35:24;;;;;;;49.35;25.88;;;6.40;99.90;;;;;;5046472;28;20094;-73
2021/03/23 08:37:50;;;;;;;48.55;24.25;;;6.40;99.90;;;;;;5048011;28;20094;-75
2021/03/23 08:40:34;;;;;;;45.20;24.65;;;6.50;99.90;;;;;;5046653;28;20374;-74
2021/03/23 08:43:00;;;;;;;46.97;23.98;;;6.50;99.90;;;;;;5044652;28;20104;-73
2021/03/23 08:45:35;;;;;;;43.35;23.05;;;6.60;99.90;;;;;;5044681;28;20255;-75
2021/03/23 08:48:04;;;;;;;42.55;23.45;;;6.60;99.90;;;;;;5044336;28;20173;-78
2021/03/23 08:50:37;;;;;;;42.92;23.00;;;6.60;99.90;;;;;;5039827;28;20532;-79
2021/03/23 08:53:24;;;;;;;39.10;21.25;;;6.70;99.90;;;;;;5045418;28;20047;-74
2021/03/23 08:55:51;;;;;;;33.25;18.52;;;7.20;99.90;;;;;;5047808;28;20049;-74
2021/03/23 08:58:41;;;;;;;;;;;6.80;99.90;;;;;;5028577;28;20032;-73
2021/03/23 09:01:25;;;;;;;34.97;18.52;;;6.80;99.90;;;;;;5050502;28;19924;-76
2021/03/23 09:03:57;;;;;;;28.90;17.65;;;6.80;99.90;;;;;;5043487;28;20053;-76
2021/03/23 09:06:24;;;;;;;36.60;19.10;;;6.90;99.90;;;;;;5045288;28;20511;-74
2021/03/23 09:09:18;;;;;;;30.15;17.77;;;7.00;99.90;;;;;;5032242;28;20052;-79
2021/03/23 09:11:47;;;;;;;36.53;19.65;;;7.10;99.90;;;;;;5004445;28;20061;-74
2021/03/23 09:14:21;;;;;;;34.08;19.02;;;7.20;99.90;;;;;;5048170;28;20044;-77
2021/03/23 09:17:13;;;;;;;31.90;18.98;;;7.20;99.90;;;;;;5043130;28;20049;-75
2021/03/23 09:19:49;;;;;;;32.05;20.40;;;7.20;99.90;;;;;;5045425;28;20223;-75
2021/03/23 09:22:21;;;;;;;30.53;20.73;;;7.20;99.90;;;;;;5028348;28;20033;-75
2021/03/23 09:24:48;;;;;;;30.15;19.95;;;7.30;99.90;;;;;;5038888;28;20781;-78
2021/03/23 09:27:26;;;;;;;35.45;18.77;;;7.20;99.90;;;;;;5029381;28;20045;-75
2021/03/23 09:29:52;;;;;;;36.92;19.98;;;7.30;99.90;;;;;;5046680;28;20474;-74
2021/03/23 09:32:25;;;;;;;30.52;20.20;;;7.30;99.90;;;;;;5048907;28;20131;-77
2021/03/23 09:35:23;;;;;;;30.40;18.50;;;7.30;99.90;;;;;;5048315;28;20063;-77
2021/03/23 09:38:18;;;;;;;34.35;19.48;;;7.40;99.90;;;;;;5043350;28;20038;-78
2021/03/23 09:41:05;;;;;;;28.63;18.08;;;7.40;99.90;;;;;;5043969;28;20048;-74
2021/03/23 09:43:33;;;;;;;31.25;20.75;;;7.50;99.90;;;;;;5047320;28;20060;-76
2021/03/23 09:46:33;;;;;;;28.52;18.33;;;7.50;99.90;;;;;;5039343;28;20041;-74
2021/03/23 09:49:23;;;;;;;30.25;17.63;;;7.60;99.90;;;;;;5036057;28;20037;-77
2021/03/23 09:52:01;;;;;;;30.60;18.27;;;7.80;99.90;;;;;;5045670;28;20060;-73
2021/03/23 09:54:32;;;;;;;34.15;21.67;;;7.80;99.90;;;;;;5031125;28;20800;-75
2021/03/23 09:57:14;;;;;;;30.20;19.67;;;7.90;99.90;;;;;;5033223;28;20041;-74
2021/03/23 09:59:49;;;;;;;31.48;20.38;;;7.90;99.90;;;;;;5033012;28;20045;-73
2021/03/23 10:02:20;;;;;;;28.90;19.70;;;7.90;99.90;;;;;;5044826;28;20833;-76
2021/03/23 10:04:47;;;;;;;33.17;18.77;;;7.90;99.90;;;;;;5031586;28;20119;-76
2021/03/23 10:07:36;;;;;;;30.25;20.38;;;7.90;99.90;;;;;;5027681;28;20344;-75
2021/03/23 10:10:27;;;;;;;29.98;17.40;;;8.00;99.90;;;;;;5049347;28;20051;-77
2021/03/23 10:12:55;;;;;;;30.48;17.80;;;8.00;99.90;;;;;;5041473;28;20185;-74
2021/03/23 10:15:23;;;;;;;28.48;17.25;;;8.20;99.90;;;;;;5032903;28;20094;-75
2021/03/23 10:17:50;;;;;;;31.33;19.10;;;8.30;99.90;;;;;;5047124;28;20041;-76
2021/03/23 10:20:21;;;;;;;29.83;17.55;;;8.40;99.90;;;;;;5026523;28;20445;-75
2021/03/23 10:22:54;;;;;;;28.80;17.67;;;8.40;99.90;;;;;;5041146;28;20040;-74
2021/03/23 10:25:23;;;;;;;26.88;15.48;;;8.50;99.90;;;;;;5030904;28;20490;-76
2021/03/23 10:28:01;;;;;;;28.77;17.10;;;8.70;99.90;;;;;;5021919;28;20470;-73
2021/03/23 10:30:36;;;;;;;29.13;16.67;;;8.80;99.90;;;;;;5057694;28;20075;-78
2021/03/23 10:33:22;;;;;;;26.83;17.00;;;8.90;99.90;;;;;;5042394;28;20041;-76
2021/03/23 10:35:55;;;;;;;29.33;21.13;;;8.80;99.90;;;;;;5048407;28;20029;-74
2021/03/23 10:38:21;;;;;;;27.58;16.40;;;8.60;99.90;;;;;;5032694;28;20054;-74
2021/03/23 10:40:58;;;;;;;27.45;18.33;;;8.60;99.90;;;;;;5013630;28;20372;-74
2021/03/23 10:43:33;;;;;;;27.67;18.35;;;8.50;99.90;;;;;;5031296;28;20454;-79
2021/03/23 10:46:02;;;;;;;29.48;18.63;;;8.50;99.90;;;;;;5045939;28;20087;-78
2021/03/23 10:48:33;;;;;;;28.98;18.52;;;8.50;99.90;;;;;;5046309;28;20072;-76
2021/03/23 10:51:17;;;;;;;27.25;16.70;;;8.40;99.90;;;;;;5047089;28;20174;-75
2021/03/23 10:54:10;;;;;;;29.40;18.55;;;8.50;99.90;;;;;;5040922;28;20073;-75
2021/03/23 10:56:37;;;;;;;28.60;16.38;;;8.60;99.90;;;;;;5044443;28;20056;-74
2021/03/23 10:59:13;;;;;;;34.30;17.58;;;9.30;99.90;;;;;;5043504;28;20484;-74
2021/03/23 11:02:05;;;;;;;31.60;18.83;;;8.80;99.90;;;;;;5020478;28;20039;-78
2021/03/23 11:04:32;;;;;;;26.95;17.38;;;8.90;99.90;;;;;;5027281;28;20082;-75
2021/03/23 11:07:19;;;;;;;31.23;19.50;;;9.40;99.90;;;;;;5038672;28;20086;-77
2021/03/23 11:09:45;;;;;;;30.73;16.55;;;9.00;99.90;;;;;;5047669;28;20098;-76
2021/03/23 11:12:12;;;;;;;32.05;17.50;;;9.20;99.90;;;;;;5027147;28;20083;-74
2021/03/23 11:14:37;;;;;;;;;;;9.40;99.90;;;;;;5028324;28;20033;-75
2021/03/23 11:17:04;;;;;;;27.70;18.42;;;9.60;99.90;;;;;;5029138;28;20362;-77
2021/03/23 11:19:34;;;;;;;25.85;16.15;;;9.80;99.10;;;;;;5034668;28;20061;-75
2021/03/23 11:22:04;;;;;;;27.27;15.95;;;10.00;99.20;;;;;;5035898;28;20087;-75
2021/03/23 11:24:33;;;;;;;29.88;19.38;;;10.30;99.80;;;;;;5048705;28;20079;-76
2021/03/23 11:27:00;;;;;;;30.55;17.55;;;10.40;97.20;;;;;;5028995;28;20053;-77
2021/03/23 11:29:26;;;;;;;28.67;17.40;;;10.30;98.00;;;;;;5049389;28;20068;-76
2021/03/23 11:31:53;;;;;;;23.73;16.80;;;10.30;98.50;;;;;;5016570;28;20706;-76
2021/03/23 11:34:19;;;;;;;29.85;18.35;;;10.40;98.30;;;;;;5050700;28;20040;-75
2021/03/23 11:36:45;;;;;;;28.63;18.33;;;10.50;98.00;;;;;;5017611;28;20167;-74
2021/03/23 11:39:13;;;;;;;28.92;16.95;;;10.50;96.60;;;;;;5040522;28;20550;-74
2021/03/23 11:41:43;;;;;;;28.10;19.48;;;10.50;96.60;;;;;;5047780;28;20846;-78
2021/03/23 11:44:21;;;;;;;32.13;18.55;;;10.70;96.80;;;;;;5050452;28;20032;-76
2021/03/23 11:46:57;;;;;;;29.35;20.20;;;10.70;96.70;;;;;;5045995;28;20152;-74
2021/03/23 11:49:32;;;;;;;30.30;19.23;;;10.70;95.70;;;;;;5049593;28;20062;-78
2021/03/23 11:51:58;;;;;;;34.58;19.83;;;10.70;96.30;;;;;;5045022;28;20528;-77
2021/03/23 11:54:26;;;;;;;28.23;19.02;;;10.50;96.50;;;;;;5035321;28;20048;-79
2021/03/23 11:56:52;;;;;;;27.35;19.67;;;10.50;95.80;;;;;;5031125;28;20036;-77
2021/03/23 11:59:22;;;;;;;29.02;18.73;;;10.40;95.50;;;;;;5029318;28;20041;-77
2021/03/23 12:01:48;;;;;;;27.42;18.83;;;10.40;96.20;;;;;;5030751;28;20129;-75
2021/03/23 12:04:15;;;;;;;29.08;18.25;;;10.30;96.30;;;;;;5016141;28;20121;-79
2021/03/23 12:07:02;;;;;;;29.70;19.08;;;10.50;96.50;;;;;;5018738;28;20033;-78
2021/03/23 12:09:45;;;;;;;27.98;20.40;;;10.60;96.60;;;;;;5050538;28;20067;-76
2021/03/23 12:12:38;;;;;;;32.92;21.65;;;10.80;95.30;;;;;;5049792;28;20136;-77
2021/03/23 12:15:13;;;;;;;29.50;19.70;;;10.80;95.30;;;;;;5047754;28;20045;-82
2021/03/23 12:17:45;;;;;;;36.85;20.85;;;10.90;95.50;;;;;;5050411;28;20136;-78
2021/03/23 12:20:19;;;;;;;31.00;23.00;;;10.70;95.10;;;;;;5049045;28;20028;-73
2021/03/23 12:22:47;;;;;;;32.05;20.98;;;10.40;95.50;;;;;;5038549;28;20048;-73
2021/03/23 12:25:14;;;;;;;33.83;23.08;;;10.30;96.40;;;;;;5037777;28;20375;-73
2021/03/23 12:27:41;;;;;;;34.50;20.95;;;10.40;96.10;;;;;;5046786;28;20041;-76
2021/03/23 12:30:08;;;;;;;33.75;23.92;;;10.50;96.50;;;;;;5051124;28;20037;-74
2021/03/23 12:32:35;;;;;;;32.17;23.95;;;10.50;96.20;;;;;;5043160;28;20151;-79
2021/03/23 12:35:06;;;;;;;33.70;21.55;;;10.40;95.90;;;;;;5019065;28;20124;-76
2021/03/23 12:37:31;;;;;;;38.65;23.17;;;10.30;96.70;;;;;;5031705;28;20037;-76
2021/03/23 12:39:57;;;;;;;36.20;21.40;;;10.30;96.40;;;;;;5019348;28;20098;-74
2021/03/23 12:42:26;;;;;;;34.70;23.95;;;10.40;97.10;;;;;;5049621;28;20123;-76
2021/03/23 12:44:52;;;;;;;34.67;21.67;;;10.50;97.10;;;;;;5045727;28;20074;-76
2021/03/23 12:47:19;;;;;;;33.35;21.15;;;10.60;97.00;;;;;;5046497;28;20110;-74
2021/03/23 12:49:45;;;;;;;35.35;24.77;;;10.70;97.50;;;;;;5028487;28;20095;-77
2021/03/23 12:52:16;;;;;;;34.60;23.52;;;10.80;95.80;;;;;;5020503;28;20045;-76
2021/03/23 12:54:49;;;;;;;40.53;24.55;;;10.70;96.00;;;;;;5042483;28;20086;-79
2021/03/23 12:57:22;;;;;;;34.53;22.77;;;10.50;96.20;;;;;;5029769;28;20040;-76
2021/03/23 12:59:52;;;;;;;35.45;24.00;;;10.50;96.70;;;;;;5037012;28;20116;-74
2021/03/23 13:02:23;;;;;;;40.55;23.92;;;10.50;96.30;;;;;;5047593;28;20041;-77
2021/03/23 13:04:49;;;;;;;34.03;24.52;;;10.50;96.40;;;;;;5048663;28;20115;-78
2021/03/23 13:07:37;;;;;;;35.83;22.45;;;10.50;96.10;;;;;;5036583;28;20116;-73
2021/03/23 13:10:08;;;;;;;34.97;22.25;;;10.60;96.60;;;;;;5044329;28;20079;-80